Time;durP1;ratioP1;P1;durP2;ratioP2;P2;SDS_P1;SDS_P2;PMS_P1;PMS_P2;Temp;Humidity;BMP_temperature;BMP_pressure;BME280_temperature;BME280_humidity;BME280_pressure;Samples;Min_cycle;Max_cycle;Signal;HPM_P1;HPM_P2
2023/07/28 00:02:22;;;;;;;2.60;1.40;;;;;;;14.45;100.00;98708.19;108994;1237;61179;-78
2023/07/28 00:04:48;;;;;;;3.80;1.70;;;;;;;14.44;100.00;98707.89;108765;1233;61663;-78
2023/07/28 00:07:15;;;;;;;4.00;2.00;;;;;;;14.44;100.00;98705.48;108686;1236;61226;-78
2023/07/28 00:09:42;;;;;;;5.20;2.40;;;;;;;14.43;100.00;98704.45;108628;1236;61354;-79
2023/07/28 00:12:08;;;;;;;5.60;3.10;;;;;;;14.44;100.00;98702.62;108986;1236;69691;-79
2023/07/28 00:14:35;;;;;;;4.20;3.40;;;;;;;14.41;100.00;98704.19;108873;1234;61247;-79
2023/07/28 00:17:01;;;;;;;7.10;3.90;;;;;;;14.41;100.00;98701.64;108969;1234;61707;-78
2023/07/28 00:19:28;;;;;;;4.20;3.20;;;;;;;14.40;100.00;98704.14;109071;1236;61127;-78
2023/07/28 00:21:56;;;;;;;8.50;2.80;;;;;;;14.38;100.00;98697.04;108964;1236;74477;-77
2023/07/28 00:24:23;;;;;;;4.80;2.40;;;;;;;14.35;100.00;98693.67;108974;1235;71061;-78
2023/07/28 00:26:50;;;;;;;4.20;3.10;;;;;;;14.35;100.00;98693.83;108702;1235;72536;-78
2023/07/28 00:29:17;;;;;;;6.30;3.40;;;;;;;14.37;100.00;98694.83;108635;1237;61696;-78
2023/07/28 00:31:43;;;;;;;7.90;3.60;;;;;;;14.36;100.00;98693.08;108752;1235;61298;-78
2023/07/28 00:34:10;;;;;;;4.70;4.00;;;;;;;14.36;100.00;98693.95;108954;1237;74409;-78
2023/07/28 00:36:36;;;;;;;7.40;4.10;;;;;;;14.35;100.00;98691.00;108963;1235;70925;-78
2023/07/28 00:39:04;;;;;;;8.00;4.10;;;;;;;14.34;100.00;98692.13;108865;1236;69996;-76
2023/07/28 00:41:30;;;;;;;7.50;4.60;;;;;;;14.33;100.00;98696.82;108929;1234;61275;-79
2023/07/28 00:43:58;;;;;;;8.40;3.90;;;;;;;14.32;100.00;98691.77;108924;1239;61162;-79
2023/07/28 00:46:24;;;;;;;5.60;2.90;;;;;;;14.31;100.00;98691.45;109012;1236;74594;-80
2023/07/28 00:48:51;;;;;;;5.60;2.30;;;;;;;14.30;100.00;98686.20;109005;1235;70842;-79
2023/07/28 00:51:17;;;;;;;4.00;2.00;;;;;;;14.27;100.00;98681.27;108631;1237;61226;-79
2023/07/28 00:53:45;;;;;;;4.10;1.70;;;;;;;14.26;100.00;98677.13;108771;1235;61763;-78
2023/07/28 00:56:12;;;;;;;3.90;1.90;;;;;;;14.25;100.00;98676.70;108750;1234;61118;-79
2023/07/28 00:58:38;;;;;;;6.00;2.40;;;;;;;14.24;100.00;98674.80;108994;1236;74569;-78
2023/07/28 01:01:05;;;;;;;2.90;1.60;;;;;;;14.21;100.00;98671.14;109004;1234;70824;-77
2023/07/28 01:03:32;;;;;;;2.90;1.70;;;;;;;14.17;100.00;98669.23;109092;1233;72449;-80
2023/07/28 01:06:35;;;;;;;4.60;1.60;;;;;;;14.16;100.00;98675.14;108942;1234;61588;-80
2023/07/28 01:09:04;;;;;;;5.00;2.10;;;;;;;14.16;100.00;98674.99;108972;1237;61226;-79
2023/07/28 01:11:31;;;;;;;2.50;1.70;;;;;;;14.16;100.00;98672.01;109099;1236;74433;-78
2023/07/28 01:13:57;;;;;;;3.00;1.90;;;;;;;14.16;100.00;98673.93;109090;1234;71033;-78
2023/07/28 01:16:25;;;;;;;8.20;2.00;;;;;;;14.17;100.00;98678.98;109180;1236;72565;-79
2023/07/28 01:18:51;;;;;;;3.20;1.60;;;;;;;14.18;100.00;98684.03;109128;1235;61916;-79
2023/07/28 01:21:23;;;;;;;2.50;1.80;;;;;;;14.18;100.00;98691.03;109080;1236;61239;-79
2023/07/28 01:24:25;;;;;;;2.50;1.80;;;;;;;14.21;100.00;98694.59;109017;1236;73333;-80
2023/07/28 01:26:51;;;;;;;7.60;2.30;;;;;;;14.22;100.00;98699.77;108673;1235;70982;-78
2023/07/28 01:29:19;;;;;;;2.70;1.70;;;;;;;14.23;100.00;98701.86;108846;1234;72565;-78
2023/07/28 01:31:47;;;;;;;3.20;1.60;;;;;;;14.22;100.00;98705.95;108939;1244;61206;-79
2023/07/28 01:34:14;;;;;;;2.50;1.80;;;;;;;14.23;100.00;98708.39;108980;1234;61233;-80
2023/07/28 01:36:40;;;;;;;2.60;1.40;;;;;;;14.23;100.00;98708.40;108997;1244;73100;-79
2023/07/28 01:39:07;;;;;;;5.40;1.60;;;;;;;14.23;100.00;98707.48;109032;1232;61723;-77
2023/07/28 01:41:33;;;;;;;1.70;1.30;;;;;;;14.23;100.00;98706.75;109060;1236;61259;-80
2023/07/28 01:44:00;;;;;;;6.10;1.70;;;;;;;14.24;100.00;98709.70;108987;1234;61550;-79
2023/07/28 01:46:27;;;;;;;2.50;1.40;;;;;;;14.24;100.00;98711.84;109183;1236;61338;-80
2023/07/28 01:48:54;;;;;;;6.10;1.60;;;;;;;14.25;100.00;98711.60;109100;1236;74473;-79
2023/07/28 01:51:20;;;;;;;4.00;1.30;;;;;;;14.24;100.00;98716.05;108149;1236;1002575;-79
2023/07/28 01:53:47;;;;;;;3.40;1.60;;;;;;;14.23;100.00;98715.20;108934;1234;72643;-80
2023/07/28 01:56:14;;;;;;;3.10;1.20;;;;;;;14.25;100.00;98715.67;108875;1236;61197;-80
2023/07/28 01:58:42;;;;;;;4.30;1.50;;;;;;;14.25;100.00;98719.17;108978;1236;61227;-80
2023/07/28 02:01:08;;;;;;;2.30;1.30;;;;;;;14.24;100.00;98718.52;108728;1234;74461;-78
2023/07/28 02:03:35;;;;;;;2.70;1.60;;;;;;;14.24;100.00;98719.21;108880;1236;69619;-80
2023/07/28 02:06:02;;;;;;;3.50;1.60;;;;;;;14.23;100.00;98719.27;108883;1234;72669;-79
2023/07/28 02:08:30;;;;;;;2.40;1.40;;;;;;;14.24;100.00;98719.26;108989;1234;61708;-79
2023/07/28 02:10:56;;;;;;;2.90;1.30;;;;;;;14.22;100.00;98718.11;108942;1242;61164;-82
2023/07/28 02:13:23;;;;;;;5.00;1.30;;;;;;;14.24;100.00;98717.47;109172;1237;74265;-81
2023/07/28 02:15:50;;;;;;;8.20;1.50;;;;;;;14.26;100.00;98723.17;108808;1234;71080;-81
2023/07/28 02:18:16;;;;;;;1.90;1.40;;;;;;;14.26;100.00;98723.13;108640;1234;61261;-79
2023/07/28 02:20:43;;;;;;;2.90;1.50;;;;;;;14.26;100.00;98726.90;108675;1235;61733;-80
2023/07/28 02:23:10;;;;;;;4.40;1.80;;;;;;;14.26;100.00;98730.61;108983;1237;61148;-77
2023/07/28 02:25:36;;;;;;;7.50;1.80;;;;;;;14.25;100.00;98727.27;109047;1236;74498;-80
2023/07/28 02:28:03;;;;;;;2.20;1.50;;;;;;;14.25;100.00;98731.32;108981;1235;70877;-79
2023/07/28 02:30:30;;;;;;;5.70;1.40;;;;;;;14.25;100.00;98734.71;108902;1233;72208;-80
2023/07/28 02:32:57;;;;;;;2.90;1.50;;;;;;;14.25;100.00;98739.45;108989;1236;61341;-81
2023/07/28 02:35:23;;;;;;;3.00;1.90;;;;;;;14.26;100.00;98746.45;108878;1237;61216;-78
2023/07/28 02:37:50;;;;;;;3.60;1.90;;;;;;;14.26;100.00;98746.79;108642;1236;61279;-80
2023/07/28 02:40:17;;;;;;;4.80;1.70;;;;;;;14.26;100.00;98746.30;109017;1236;70850;-80
2023/07/28 02:42:43;;;;;;;3.10;1.90;;;;;;;14.25;100.00;98746.69;108972;1236;72222;-82
2023/07/28 02:45:10;;;;;;;8.20;2.00;;;;;;;14.24;100.00;98744.80;109008;1236;61345;-80
2023/07/28 02:47:38;;;;;;;4.00;1.60;;;;;;;14.24;100.00;98746.38;108838;1236;61226;-82
2023/07/28 02:50:05;;;;;;;3.60;1.50;;;;;;;14.24;100.00;98746.39;108892;1241;74470;-79
2023/07/28 02:52:32;;;;;;;2.50;1.50;;;;;;;14.25;100.00;98748.09;108933;1235;71033;-78
2023/07/28 02:54:59;;;;;;;2.30;1.60;;;;;;;14.25;100.00;98745.63;108906;1233;72357;-79
2023/07/28 02:57:26;;;;;;;6.60;2.30;;;;;;;14.25;100.00;98751.66;108787;1234;61713;-79
2023/07/28 02:59:53;;;;;;;4.20;2.10;;;;;;;14.24;100.00;98749.21;108621;1234;61225;-82
2023/07/28 03:02:20;;;;;;;7.10;2.30;;;;;;;14.23;100.00;98757.06;108747;1237;74590;-79
2023/07/28 03:04:46;;;;;;;13.90;3.00;;;;;;;14.22;100.00;98757.46;108695;1235;70837;-80
2023/07/28 03:07:16;;;;;;;4.70;1.70;;;;;;;14.22;100.00;98758.53;108862;1236;71058;-79
2023/07/28 03:09:45;;;;;;;8.30;1.80;;;;;;;14.21;100.00;98760.16;108842;1237;61253;-80
2023/07/28 03:12:12;;;;;;;4.40;1.60;;;;;;;14.20;100.00;98761.48;108930;1232;61224;-77
2023/07/28 03:14:39;;;;;;;3.10;1.90;;;;;;;14.18;100.00;98761.45;108582;1234;74604;-81
2023/07/28 03:17:06;;;;;;;4.50;2.20;;;;;;;14.16;100.00;98771.93;108798;1236;61277;-79
2023/07/28 03:19:33;;;;;;;8.40;3.30;;;;;;;14.14;100.00;98772.38;108914;1236;71516;-79
2023/07/28 03:22:00;;;;;;;9.80;3.70;;;;;;;14.14;100.00;98773.63;108832;1237;61196;-79
2023/07/28 03:24:27;;;;;;;7.40;4.10;;;;;;;14.16;100.00;98770.58;108597;1232;61096;-81
2023/07/28 03:26:54;;;;;;;6.70;2.70;;;;;;;14.14;100.00;98771.34;108800;1236;73151;-81
2023/07/28 03:29:22;;;;;;;4.70;2.90;;;;;;;14.14;100.00;98773.27;108756;1236;70804;-80
2023/07/28 03:31:49;;;;;;;7.80;2.90;;;;;;;14.15;100.00;98774.27;108686;1240;72427;-78
2023/07/28 03:34:16;;;;;;;4.90;2.50;;;;;;;14.17;100.00;98776.45;108655;1234;61862;-78
2023/07/28 03:36:43;;;;;;;9.00;3.90;;;;;;;14.19;100.00;98782.89;108855;1236;61131;-79
2023/07/28 03:39:10;;;;;;;6.20;3.70;;;;;;;14.20;100.00;98784.20;108580;1239;73168;-80
2023/07/28 03:41:36;;;;;;;9.10;3.80;;;;;;;14.20;100.00;98787.20;108559;1238;69591;-79
2023/07/28 03:44:03;;;;;;;7.90;3.50;;;;;;;14.19;100.00;98785.00;108724;1238;72455;-82
2023/07/28 03:46:30;;;;;;;8.30;3.60;;;;;;;14.18;100.00;98785.96;108794;1234;61648;-79
2023/07/28 03:48:58;;;;;;;9.50;2.90;;;;;;;14.20;100.00;98793.23;109230;1238;61441;-80
2023/07/28 03:51:25;;;;;;;9.40;3.20;;;;;;;14.21;100.00;98792.96;109209;1237;74558;-79
2023/07/28 03:53:52;;;;;;;8.00;3.60;;;;;;;14.21;100.00;98793.70;108745;1234;70043;-79
2023/07/28 03:56:19;;;;;;;3.90;2.80;;;;;;;14.20;100.00;98791.30;108606;1240;72398;-79
2023/07/28 03:58:46;;;;;;;10.60;3.10;;;;;;;14.20;100.00;98788.99;108951;1237;61879;-80
2023/07/28 04:01:13;;;;;;;7.10;2.80;;;;;;;14.20;100.00;98789.35;108835;1238;61354;-81
2023/07/28 04:03:41;;;;;;;9.00;3.40;;;;;;;14.20;100.00;98790.41;108752;1234;73432;-80
2023/07/28 04:06:11;;;;;;;9.20;3.60;;;;;;;14.20;100.00;98789.33;108740;1238;71283;-80
2023/07/28 04:08:39;;;;;;;4.90;3.40;;;;;;;14.19;100.00;98795.42;108747;1237;72445;-80
2023/07/28 04:11:06;;;;;;;9.30;4.20;;;;;;;14.17;100.00;98798.69;108566;1235;61319;-79
2023/07/28 04:13:35;;;;;;;12.90;4.40;;;;;;;14.17;100.00;98797.14;108756;1232;61225;-82
2023/07/28 04:16:02;;;;;;;8.60;3.90;;;;;;;14.17;100.00;98797.84;108724;1237;73379;-81
2023/07/28 04:18:30;;;;;;;5.90;3.10;;;;;;;14.14;100.00;98799.77;108843;1234;70880;-79
2023/07/28 04:20:56;;;;;;;11.50;2.80;;;;;;;14.11;100.00;98796.38;108473;1239;72296;-82
2023/07/28 04:23:23;;;;;;;7.00;2.30;;;;;;;14.08;100.00;98794.64;108748;1238;61351;-80
2023/07/28 04:25:49;;;;;;;12.90;3.30;;;;;;;14.06;100.00;98794.39;108512;1232;61259;-81
2023/07/28 04:28:16;;;;;;;5.50;2.50;;;;;;;14.06;100.00;98792.12;108568;1236;74262;-77
2023/07/28 04:30:45;;;;;;;4.90;2.70;;;;;;;14.06;100.00;98790.52;108860;1239;70827;-79
2023/07/28 04:33:21;;;;;;;5.20;2.70;;;;;;;14.09;100.00;98793.17;108465;1234;72440;-81
2023/07/28 04:35:48;;;;;;;2.60;2.00;;;;;;;14.13;100.00;98789.39;108506;1240;61846;-80
2023/07/28 04:38:19;;;;;;;6.70;2.20;;;;;;;14.17;100.00;98789.90;108605;1234;61922;-80
2023/07/28 04:40:54;;;;;;;6.30;2.50;;;;;;;14.21;100.00;98790.49;108714;1234;74379;-81
2023/07/28 04:43:25;;;;;;;7.70;2.70;;;;;;;14.25;100.00;98784.63;108542;1239;69737;-81
2023/07/28 04:45:56;;;;;;;5.30;2.30;;;;;;;14.27;100.00;98786.25;108696;1237;72496;-79
2023/07/28 04:48:23;;;;;;;4.00;2.00;;;;;;;14.29;100.00;98783.87;108796;1236;61685;-79
2023/07/28 04:50:50;;;;;;;7.40;2.10;;;;;;;14.31;100.00;98784.98;108637;1236;61289;-80
2023/07/28 04:53:45;;;;;;;6.00;2.30;;;;;;;14.31;100.00;98787.23;108572;1239;76162;-80
2023/07/28 04:56:19;;;;;;;3.90;1.50;;;;;;;14.34;100.00;98790.57;108721;1237;72710;-80
2023/07/28 04:58:47;;;;;;;4.90;2.00;;;;;;;14.38;100.00;98786.45;108710;1234;72919;-82
2023/07/28 05:01:14;;;;;;;6.30;1.90;;;;;;;14.41;100.00;98789.96;108884;1237;63307;-80
2023/07/28 05:03:45;;;;;;;5.00;2.20;;;;;;;14.41;100.00;98783.09;108899;1232;61810;-81
2023/07/28 05:06:19;;;;;;;6.90;2.60;;;;;;;14.40;100.00;98786.34;108072;1236;1002912;-79
2023/07/28 05:08:46;;;;;;;7.30;1.80;;;;;;;14.40;100.00;98780.89;108559;1237;71461;-81
2023/07/28 05:11:16;;;;;;;2.70;1.90;;;;;;;14.42;100.00;98777.23;108647;1238;74183;-78
2023/07/28 05:13:44;;;;;;;7.70;1.80;;;;;;;14.42;100.00;98773.64;108772;1236;63186;-80
2023/07/28 05:16:11;;;;;;;4.50;2.10;;;;;;;14.45;100.00;98778.98;108690;1236;61654;-80
2023/07/28 05:18:56;;;;;;;6.60;2.90;;;;;;;14.48;100.00;98777.20;108733;1235;75491;-82
2023/07/28 05:21:38;;;;;;;4.40;2.60;;;;;;;14.54;100.00;98775.66;108735;1235;72819;-80
2023/07/28 05:24:06;;;;;;;25.40;2.20;;;;;;;14.56;100.00;98778.66;108774;1236;74142;-80
2023/07/28 05:26:34;;;;;;;6.20;1.90;;;;;;;14.59;100.00;98775.66;108742;1233;62006;-81
2023/07/28 05:29:01;;;;;;;3.10;2.10;;;;;;;14.62;100.00;98771.93;108754;1236;61778;-81
2023/07/28 05:31:29;;;;;;;4.70;2.00;;;;;;;14.63;100.00;98769.93;108604;1239;76180;-80
2023/07/28 05:33:57;;;;;;;5.10;1.80;;;;;;;14.65;100.00;98773.02;108564;1239;72510;-81
2023/07/28 05:36:24;;;;;;;4.00;2.00;;;;;;;14.69;100.00;98776.80;108614;1235;73874;-81
2023/07/28 05:38:56;;;;;;;3.60;2.30;;;;;;;14.73;100.00;98778.30;108746;1236;62606;-80
2023/07/28 05:41:24;;;;;;;6.20;1.80;;;;;;;14.78;100.00;98779.94;108811;1236;61657;-81
2023/07/28 05:43:51;;;;;;;4.70;1.70;;;;;;;14.85;100.00;98782.32;108747;1237;76117;-81
2023/07/28 05:46:19;;;;;;;5.40;1.60;;;;;;;14.90;100.00;98778.14;108601;1244;72300;-82
2023/07/28 05:48:47;;;;;;;3.90;1.50;;;;;;;14.94;100.00;98782.08;108763;1234;74046;-81
2023/07/28 05:51:14;;;;;;;4.00;1.60;;;;;;;14.97;100.00;98784.20;108838;1237;63251;-79
2023/07/28 05:53:41;;;;;;;4.90;1.90;;;;;;;14.99;100.00;98779.84;108626;1238;61622;-81
2023/07/28 05:56:09;;;;;;;2.20;1.70;;;;;;;15.01;100.00;98781.33;108615;1238;75943;-80
2023/07/28 05:58:36;;;;;;;3.50;1.50;;;;;;;15.04;100.00;98785.84;108809;1236;71595;-81
2023/07/28 06:01:03;;;;;;;4.50;1.30;;;;;;;15.11;100.00;98784.74;108624;1240;73942;-80
2023/07/28 06:03:51;;;;;;;5.20;2.00;;;;;;;15.14;100.00;98782.92;108369;1246;61268;-81
2023/07/28 06:06:22;;;;;;;5.10;1.80;;;;;;;15.14;100.00;98776.73;108650;1232;61779;-78
2023/07/28 06:08:49;;;;;;;5.40;1.70;;;;;;;15.15;100.00;98781.61;108787;1236;76453;-79
2023/07/28 06:11:16;;;;;;;4.00;1.90;;;;;;;15.19;100.00;98787.02;108492;1235;72504;-81
2023/07/28 06:13:46;;;;;;;8.10;2.00;;;;;;;15.24;100.00;98788.77;108775;1234;74587;-80
2023/07/28 06:16:14;;;;;;;5.90;2.30;;;;;;;15.31;100.00;98793.33;108812;1233;61326;-80
2023/07/28 06:18:41;;;;;;;6.80;2.90;;;;;;;15.37;100.00;98790.98;108606;1234;62059;-82
2023/07/28 06:21:15;;;;;;;5.90;2.00;;;;;;;15.45;100.00;98794.52;108731;1235;76136;-78
2023/07/28 06:23:42;;;;;;;5.50;1.80;;;;;;;15.57;100.00;98796.15;108813;1235;72629;-80
2023/07/28 06:26:09;;;;;;;5.30;2.10;;;;;;;15.71;100.00;98795.11;108785;1235;74183;-79
2023/07/28 06:28:38;;;;;;;8.50;3.00;;;;;;;15.83;100.00;98797.13;108572;1238;61776;-80
2023/07/28 06:31:05;;;;;;;8.60;4.00;;;;;;;15.95;100.00;98794.34;108823;1236;61585;-81
2023/07/28 06:33:36;;;;;;;8.10;3.10;;;;;;;16.07;100.00;98791.59;108628;1237;76115;-81
2023/07/28 06:36:04;;;;;;;7.90;2.10;;;;;;;16.22;100.00;98797.83;108526;1239;71412;-80
2023/07/28 06:38:32;;;;;;;2.90;2.00;;;;;;;16.37;100.00;98805.48;108747;1237;74128;-79
2023/07/28 06:40:59;;;;;;;3.90;2.00;;;;;;;16.50;100.00;98807.04;108523;1238;61261;-83
2023/07/28 06:43:26;;;;;;;6.30;1.90;;;;;;;16.59;100.00;98795.76;108592;1234;61214;-81
2023/07/28 06:45:54;;;;;;;4.80;1.50;;;;;;;16.65;100.00;98789.50;108601;1237;74321;-81
2023/07/28 06:48:21;;;;;;;3.80;1.50;;;;;;;16.69;100.00;98779.27;109478;1235;70816;-82
2023/07/28 06:50:48;;;;;;;2.70;1.60;;;;;;;16.78;100.00;98787.71;108957;1236;72376;-80
2023/07/28 06:53:15;;;;;;;2.90;1.30;;;;;;;16.89;100.00;98790.88;108768;1236;61283;-80
2023/07/28 06:55:43;;;;;;;5.10;1.60;;;;;;;16.98;100.00;98792.86;108692;1234;61315;-82
2023/07/28 06:58:10;;;;;;;2.20;1.30;;;;;;;17.07;100.00;98789.33;108723;1237;73368;-80
2023/07/28 07:00:37;;;;;;;4.00;1.80;;;;;;;17.20;100.00;98788.93;108723;1236;70913;-80
2023/07/28 07:03:04;;;;;;;5.40;1.50;;;;;;;17.32;100.00;98791.09;108684;1234;72368;-81
2023/07/28 07:05:32;;;;;;;5.80;1.90;;;;;;;17.43;100.00;98784.56;108550;1236;292062;-81
2023/07/28 07:08:00;;;;;;;1.70;1.40;;;;;;;17.54;100.00;98779.00;108844;1237;61243;-84
2023/07/28 07:10:27;;;;;;;4.10;1.40;;;;;;;17.62;100.00;98773.62;108561;1238;74378;-81
2023/07/28 07:12:56;;;;;;;2.00;1.30;;;;;;;17.66;100.00;98769.02;108666;1236;61217;-80
2023/07/28 07:15:23;;;;;;;3.50;1.50;;;;;;;17.70;100.00;98768.17;108596;1234;72220;-82
2023/07/28 07:17:49;;;;;;;8.70;1.70;;;;;;;17.73;100.00;98762.11;108713;1235;61357;-80
2023/07/28 07:20:16;;;;;;;3.30;1.50;;;;;;;17.78;100.00;98764.05;108686;1237;61233;-80
2023/07/28 07:22:42;;;;;;;4.50;1.20;;;;;;;17.82;100.00;98756.63;108840;1236;74549;-80
2023/07/28 07:25:09;;;;;;;2.10;1.50;;;;;;;17.88;100.00;98761.39;108779;1237;69514;-80
2023/07/28 07:27:36;;;;;;;4.60;1.30;;;;;;;17.94;100.00;98762.67;109081;1234;72894;-81
2023/07/28 07:30:04;;;;;;;4.80;1.60;;;;;;;17.99;100.00;98752.86;108735;1236;61735;-80
2023/07/28 07:32:32;;;;;;;2.20;1.20;;;;;;;18.03;100.00;98757.55;108946;1235;61335;-80
2023/07/28 07:34:59;;;;;;;1.40;1.20;;;;;;;18.10;100.00;98761.99;109040;1236;74267;-80
2023/07/28 07:37:28;;;;;;;2.70;1.30;;;;;;;18.16;100.00;98758.52;108784;1234;70913;-80
2023/07/28 07:39:55;;;;;;;3.70;1.40;;;;;;;18.18;100.00;98760.49;108875;1233;72614;-81
2023/07/28 07:42:22;;;;;;;6.20;1.30;;;;;;;18.19;100.00;98760.36;108634;1234;61251;-80
2023/07/28 07:44:48;;;;;;;3.20;1.40;;;;;;;18.27;100.00;98773.31;108606;1237;61342;-81
2023/07/28 07:47:15;;;;;;;1.30;1.20;;;;;;;18.37;100.00;98778.67;108740;1236;61242;-83
2023/07/28 07:49:42;;;;;;;4.80;1.20;;;;;;;18.46;100.00;98770.00;108820;1238;70803;-81
2023/07/28 07:52:09;;;;;;;1.60;1.40;;;;;;;18.50;100.00;98776.46;108766;1234;71484;-82
2023/07/28 07:54:36;;;;;;;2.10;1.30;;;;;;;18.49;100.00;98774.55;108712;1232;61196;-81
2023/07/28 07:57:04;;;;;;;5.20;1.50;;;;;;;18.49;100.00;98777.91;108700;1234;61246;-80
2023/07/28 07:59:32;;;;;;;1.30;0.90;;;;;;;18.50;100.00;98777.09;108728;1232;74780;-80
2023/07/28 08:02:02;;;;;;;3.60;1.20;;;;;;;18.56;100.00;98772.06;108729;1237;70854;-80
2023/07/28 08:04:29;;;;;;;6.30;1.20;;;;;;;18.64;100.00;98776.25;108758;1245;71455;-80
2023/07/28 08:06:56;;;;;;;3.20;1.40;;;;;;;18.73;100.00;98778.30;108715;1240;61703;-80
2023/07/28 08:09:23;;;;;;;1.90;1.00;;;;;;;18.87;100.00;98787.56;108835;1234;61328;-79
2023/07/28 08:11:50;;;;;;;2.10;0.90;;;;;;;19.03;100.00;98789.15;108583;1234;74300;-81
2023/07/28 08:14:16;;;;;;;2.10;1.10;;;;;;;19.18;100.00;98788.29;108676;1234;70942;-79
2023/07/28 08:16:43;;;;;;;2.70;1.20;;;;;;;19.29;100.00;98780.20;108819;1236;70995;-80
2023/07/28 08:19:10;;;;;;;9.20;1.50;;;;;;;19.40;100.00;98780.23;108801;1233;61344;-80
2023/07/28 08:21:37;;;;;;;1.30;1.20;;;;;;;19.47;100.00;98772.37;108810;1237;61306;-81
2023/07/28 08:24:04;;;;;;;2.60;1.00;;;;;;;19.50;100.00;98767.64;108732;1238;74340;-80
2023/07/28 08:26:31;;;;;;;7.30;1.10;;;;;;;19.55;100.00;98766.00;108835;1237;71713;-80
2023/07/28 08:28:57;;;;;;;4.20;1.30;;;;;;;19.63;100.00;98766.92;108855;1236;72313;-80
2023/07/28 08:31:24;;;;;;;2.30;1.20;;;;;;;19.74;100.00;98769.09;108867;1236;61236;-80
2023/07/28 08:33:51;;;;;;;4.00;1.20;;;;;;;19.81;100.00;98769.15;108865;1237;61203;-79
2023/07/28 08:36:18;;;;;;;2.40;1.10;;;;;;;19.89;100.00;98769.20;108803;1236;74416;-80
2023/07/28 08:38:45;;;;;;;3.40;1.00;;;;;;;19.97;100.00;98774.44;108906;1235;71041;-81
2023/07/28 08:41:13;;;;;;;2.00;1.00;;;;;;;19.99;100.00;98769.04;108919;1238;71432;-82
2023/07/28 08:43:40;;;;;;;5.30;1.00;;;;;;;19.99;100.00;98770.84;108883;1235;61280;-80
2023/07/28 08:46:08;;;;;;;2.20;0.90;;;;;;;19.98;100.00;98768.60;108990;1246;61235;-82
2023/07/28 08:48:35;;;;;;;0.80;0.70;;;;;;;19.97;100.00;98773.70;108983;1236;74376;-82
2023/07/28 08:51:04;;;;;;;1.20;0.90;;;;;;;19.98;100.00;98773.92;109113;1236;71004;-80
2023/07/28 08:53:31;;;;;;;0.80;0.80;;;;;;;20.04;100.00;98774.72;109070;1236;72522;-81
2023/07/28 08:55:57;;;;;;;1.20;0.80;;;;;;;20.12;100.00;98771.95;108824;1236;61171;-80
2023/07/28 08:58:24;;;;;;;2.60;0.80;;;;;;;20.19;100.00;98776.31;108854;1236;61268;-82
2023/07/28 09:00:52;;;;;;;1.80;1.00;;;;;;;20.28;100.00;98779.59;108773;1236;61368;-81
2023/07/28 09:03:19;;;;;;;4.70;1.60;;;;;;;20.39;100.00;98785.02;109101;1237;68682;-82
2023/07/28 09:05:46;;;;;;;5.20;0.90;;;;;;;20.46;100.00;98778.74;108797;1237;72340;-80
2023/07/28 09:08:13;;;;;;;3.00;1.00;;;;;;;20.48;100.00;98777.92;108728;1236;61264;-80
2023/07/28 09:10:42;;;;;;;1.30;0.80;;;;;;;20.49;100.00;98776.23;108889;1235;61222;-78
2023/07/28 09:13:11;;;;;;;2.80;1.10;;;;;;;20.54;100.00;98784.65;108843;1236;73138;-81
2023/07/28 09:15:40;;;;;;;1.10;0.90;;;;;;;20.63;100.00;98791.16;108936;1236;69399;-80
2023/07/28 09:18:13;;;;;;;1.10;0.90;;;;;;;20.74;100.00;98792.67;108968;1236;72366;-81
2023/07/28 09:20:43;;;;;;;1.80;0.90;;;;;;;20.82;100.00;98789.88;109088;1238;61254;-78
2023/07/28 09:23:10;;;;;;;3.10;1.10;;;;;;;20.85;100.00;98785.14;108958;1234;61256;-80
2023/07/28 09:25:38;;;;;;;1.90;1.00;;;;;;;20.88;100.00;98781.54;108879;1236;74635;-80
2023/07/28 09:28:05;;;;;;;4.70;0.90;;;;;;;20.93;100.00;98784.84;109018;1236;71114;-80
2023/07/28 09:30:46;;;;;;;0.80;0.80;;;;;;;21.00;100.00;98787.05;108977;1235;72505;-79
2023/07/28 09:33:13;;;;;;;4.00;0.80;;;;;;;21.07;100.00;98784.40;108844;1237;61268;-78
2023/07/28 09:35:49;;;;;;;2.20;0.90;;;;;;;21.12;100.00;98786.80;108596;1246;61255;-79
2023/07/28 09:38:16;;;;;;;0.90;0.80;;;;;;;21.17;100.00;98784.81;108793;1236;74507;-79
2023/07/28 09:40:43;;;;;;;9.80;0.90;;;;;;;21.24;100.00;98787.23;108746;1235;71057;-80
2023/07/28 09:43:10;;;;;;;0.70;0.70;;;;;;;21.31;100.00;98784.40;108879;1236;72558;-79
2023/07/28 09:45:36;;;;;;;3.00;1.00;;;;;;;21.40;100.00;98782.55;109542;1237;61313;-78
2023/07/28 09:48:09;;;;;;;0.70;0.60;;;;;;;21.49;100.00;98793.00;109034;1240;61098;-78
2023/07/28 09:50:37;;;;;;;1.50;0.70;;;;;;;21.57;100.00;98788.70;108710;1237;74557;-79
2023/07/28 09:53:04;;;;;;;1.40;0.90;;;;;;;21.64;100.00;98790.95;108931;1238;69281;-79
2023/07/28 09:55:31;;;;;;;6.50;0.80;;;;;;;21.68;100.00;98787.88;109183;1235;72610;-80
2023/07/28 09:57:59;;;;;;;4.00;0.90;;;;;;;21.72;100.00;98780.17;109009;1234;61202;-79
2023/07/28 10:00:25;;;;;;;3.20;0.90;;;;;;;21.75;100.00;98777.89;108872;1239;61186;-79
2023/07/28 10:02:52;;;;;;;1.60;0.70;;;;;;;21.80;100.00;98779.45;109087;1239;61254;-79
2023/07/28 10:05:19;;;;;;;1.00;0.70;;;;;;;21.85;100.00;98780.91;108868;1237;70817;-80
2023/07/28 10:07:49;;;;;;;5.10;1.00;;;;;;;21.95;100.00;98781.84;109002;1235;72607;-80
2023/07/28 10:10:16;;;;;;;2.90;1.00;;;;;;;22.06;100.00;98775.38;108874;1234;61239;-78
2023/07/28 10:12:50;;;;;;;2.40;1.00;;;;;;;22.15;100.00;98767.02;108872;1234;61294;-79
2023/07/28 10:15:18;;;;;;;1.10;0.90;;;;;;;22.22;100.00;98768.48;108927;1232;74467;-79
2023/07/28 10:17:54;;;;;;;1.30;0.70;;;;;;;22.30;100.00;98771.79;109026;1235;70869;-78
2023/07/28 10:20:30;;;;;;;1.00;0.70;;;;;;;22.35;100.00;98769.66;109363;1237;72286;-79
2023/07/28 10:23:10;;;;;;;3.70;0.90;;;;;;;22.44;100.00;98775.41;109202;1237;61264;-78
2023/07/28 10:25:37;;;;;;;6.50;0.80;;;;;;;22.48;100.00;98778.65;109635;1235;61274;-78
2023/07/28 10:28:05;;;;;;;3.80;0.60;;;;;;;22.47;100.00;98770.46;109605;1234;74506;-77
2023/07/28 10:30:37;;;;;;;3.70;0.90;;;;;;;22.46;100.00;98766.16;109534;1237;70962;-78
2023/07/28 10:33:04;;;;;;;2.30;1.00;;;;;;;22.46;100.00;98770.09;109474;1235;72253;-78
2023/07/28 10:35:32;;;;;;;1.80;0.70;;;;;;;22.39;100.00;98764.46;109570;1235;61172;-79
2023/07/28 10:37:59;;;;;;;2.10;0.90;;;;;;;22.37;100.00;98761.75;109701;1235;61094;-79
2023/07/28 10:40:26;;;;;;;1.00;0.80;;;;;;;22.38;100.00;98759.52;109609;1237;74399;-79
2023/07/28 10:42:54;;;;;;;1.90;0.80;;;;;;;22.37;100.00;98755.58;109719;1236;71440;-79
2023/07/28 10:45:26;;;;;;;2.30;0.80;;;;;;;22.35;100.00;98750.16;109715;1234;72284;-77
2023/07/28 10:47:56;;;;;;;5.20;1.00;;;;;;;22.42;100.00;98754.91;109695;1237;61329;-79
2023/07/28 10:50:23;;;;;;;1.20;0.80;;;;;;;22.51;100.00;98753.70;109643;1239;61233;-79
2023/07/28 10:52:50;;;;;;;2.80;0.70;;;;;;;22.53;100.00;98750.77;108888;1237;1002954;-79
2023/07/28 10:55:20;;;;;;;2.00;0.70;;;;;;;22.54;100.00;98758.69;109539;1236;70442;-79
2023/07/28 10:57:48;;;;;;;3.40;0.90;;;;;;;22.57;100.00;98758.80;109610;1236;72363;-79
2023/07/28 11:00:16;;;;;;;2.40;1.10;;;;;;;22.62;100.00;98756.02;109727;1233;59884;-79
2023/07/28 11:02:47;;;;;;;2.90;1.50;;;;;;;22.73;100.00;98756.23;109665;1233;61252;-79
2023/07/28 11:05:22;;;;;;;2.40;1.10;;;;;;;22.83;100.00;98758.60;109635;1237;74540;-79
2023/07/28 11:07:58;;;;;;;1.70;0.90;;;;;;;22.89;100.00;98758.01;109676;1235;70797;-78
2023/07/28 11:10:27;;;;;;;3.00;1.10;;;;;;;22.95;100.00;98762.09;109583;1238;71657;-79
2023/07/28 11:12:57;;;;;;;3.90;0.90;;;;;;;23.01;100.00;98761.30;109610;1235;61239;-78
2023/07/28 11:15:26;;;;;;;3.20;0.90;;;;;;;23.04;100.00;98764.64;109654;1233;61358;-79
2023/07/28 11:17:53;;;;;;;1.70;0.90;;;;;;;23.07;100.00;98758.45;109696;1235;74408;-79
2023/07/28 11:20:24;;;;;;;7.20;1.10;;;;;;;23.15;100.00;98755.83;109689;1235;70860;-78
2023/07/28 11:22:54;;;;;;;2.40;1.10;;;;;;;23.24;100.00;98760.39;109656;1235;72537;-78